createdAt,value
2023-07-25T00:00:37.514Z,3.70
2023-07-25T00:03:09.402Z,3.50
2023-07-25T00:05:40.945Z,3.90
2023-07-25T00:08:12.502Z,3.80
2023-07-25T00:10:44.024Z,3.47
2023-07-25T00:13:15.975Z,3.95
2023-07-25T00:15:47.504Z,3.50
2023-07-25T00:18:19.100Z,3.65
2023-07-25T00:20:50.738Z,3.80
2023-07-25T00:23:22.533Z,3.00
2023-07-25T00:25:54.164Z,3.53
2023-07-25T00:28:25.816Z,3.33
2023-07-25T00:30:57.454Z,3.28
2023-07-25T00:33:29.030Z,2.90
2023-07-25T00:36:00.564Z,3.42
2023-07-25T00:38:32.157Z,3.60
2023-07-25T00:41:03.680Z,3.50
2023-07-25T00:43:35.261Z,3.70
2023-07-25T00:46:06.841Z,3.63
2023-07-25T00:48:38.595Z,2.92
2023-07-25T00:51:10.151Z,3.55
2023-07-25T00:53:42.770Z,3.35
2023-07-25T00:56:15.170Z,3.45
2023-07-25T00:58:47.898Z,4.32
2023-07-25T01:01:19.557Z,3.53
2023-07-25T01:03:54.509Z,3.65
2023-07-25T01:06:26.276Z,5.43
2023-07-25T01:08:58.582Z,3.85
2023-07-25T01:11:30.367Z,4.25
2023-07-25T01:14:02.331Z,3.90
2023-07-25T01:16:35.290Z,4.50
2023-07-25T01:19:08.134Z,3.83
2023-07-25T01:21:39.816Z,4.32
2023-07-25T01:24:11.468Z,4.45
2023-07-25T01:26:43.140Z,5.18
2023-07-25T01:29:14.652Z,4.32
2023-07-25T01:31:46.198Z,5.35
2023-07-25T01:34:17.743Z,4.85
2023-07-25T01:36:49.306Z,4.43
2023-07-25T01:39:20.798Z,4.65
2023-07-25T01:41:52.390Z,4.38
2023-07-25T01:44:23.928Z,4.82
2023-07-25T01:46:58.188Z,4.97
2023-07-25T01:49:29.789Z,4.40
2023-07-25T01:52:01.362Z,3.67
2023-07-25T01:54:32.883Z,4.47
2023-07-25T01:57:04.736Z,4.38
2023-07-25T01:59:36.364Z,4.30
2023-07-25T02:02:08.261Z,4.57
2023-07-25T02:04:39.784Z,4.38
2023-07-25T02:07:11.318Z,4.40
2023-07-25T02:09:42.887Z,4.15
2023-07-25T02:12:14.421Z,4.50
2023-07-25T02:14:45.925Z,6.13
2023-07-25T02:17:20.536Z,4.00
2023-07-25T02:19:52.160Z,4.65
2023-07-25T02:22:23.724Z,4.40
2023-07-25T02:24:55.257Z,4.75
2023-07-25T02:27:26.919Z,4.57
2023-07-25T02:29:58.432Z,4.55
2023-07-25T02:32:29.993Z,5.45
2023-07-25T02:35:01.484Z,6.47
2023-07-25T02:37:33.073Z,4.65
2023-07-25T02:40:05.069Z,5.35
2023-07-25T02:42:36.808Z,5.53
2023-07-25T02:45:08.625Z,5.85
2023-07-25T02:47:40.267Z,5.50
2023-07-25T02:50:11.821Z,5.32
2023-07-25T02:52:43.459Z,5.15
2023-07-25T02:55:15.084Z,6.00
2023-07-25T02:57:46.655Z,6.47
2023-07-25T03:00:18.262Z,5.32
2023-07-25T03:02:49.856Z,6.55
2023-07-25T03:05:21.516Z,5.70
2023-07-25T03:07:53.090Z,6.40
2023-07-25T03:10:24.625Z,7.50
2023-07-25T03:12:56.215Z,6.25
2023-07-25T03:15:27.744Z,6.25
2023-07-25T03:17:59.401Z,6.63
2023-07-25T03:20:31.083Z,6.45
2023-07-25T03:23:02.655Z,6.80
2023-07-25T03:25:34.201Z,6.78
2023-07-25T03:28:05.818Z,6.70
2023-07-25T03:30:37.485Z,6.03
2023-07-25T03:33:09.179Z,6.40
2023-07-25T03:35:40.828Z,6.22
2023-07-25T03:38:12.563Z,7.10
2023-07-25T03:40:44.145Z,6.30
2023-07-25T03:43:15.657Z,6.75
2023-07-25T03:45:47.313Z,6.00
2023-07-25T03:48:18.974Z,6.20
2023-07-25T03:50:50.543Z,6.05
2023-07-25T03:53:22.144Z,6.15
2023-07-25T03:55:53.724Z,6.10
2023-07-25T03:58:25.252Z,6.65
2023-07-25T04:00:56.806Z,5.65
2023-07-25T04:03:28.549Z,5.05
2023-07-25T04:06:00.532Z,6.07
2023-07-25T04:08:32.107Z,5.75
2023-07-25T04:11:03.629Z,6.07
2023-07-25T04:13:35.185Z,5.25
2023-07-25T04:16:06.807Z,5.85
2023-07-25T04:18:38.359Z,5.47
2023-07-25T04:21:09.867Z,6.13
2023-07-25T04:23:41.479Z,5.68
2023-07-25T04:26:13.050Z,6.00
2023-07-25T04:28:44.676Z,6.20
2023-07-25T04:31:17.023Z,5.57
2023-07-25T04:33:48.676Z,6.75
2023-07-25T04:36:20.383Z,5.85
2023-07-25T04:38:51.993Z,5.10
2023-07-25T04:41:23.878Z,5.50
2023-07-25T04:43:55.431Z,5.60
2023-07-25T04:46:27.001Z,6.30
2023-07-25T04:48:58.657Z,5.60
2023-07-25T04:51:30.488Z,6.05
2023-07-25T04:54:02.314Z,5.93
2023-07-25T04:56:33.933Z,5.65
2023-07-25T04:59:05.496Z,5.60
2023-07-25T05:01:37.031Z,6.07
2023-07-25T05:04:09.064Z,5.47
2023-07-25T05:06:40.634Z,5.10
2023-07-25T05:09:12.315Z,5.72
2023-07-25T05:11:43.817Z,6.18
2023-07-25T05:14:15.413Z,5.78
2023-07-25T05:16:46.925Z,4.20
2023-07-25T05:19:18.558Z,6.32
2023-07-25T05:21:50.127Z,5.28
2023-07-25T05:24:21.764Z,3.95
2023-07-25T05:26:53.297Z,3.40
2023-07-25T05:29:24.951Z,3.03
2023-07-25T05:31:56.530Z,2.85
2023-07-25T05:34:28.153Z,3.78
2023-07-25T05:36:59.821Z,3.20
2023-07-25T05:39:31.378Z,3.78
2023-07-25T05:42:03.293Z,3.20
2023-07-25T05:44:34.805Z,3.20
2023-07-25T05:47:06.756Z,2.95
2023-07-25T05:49:38.384Z,3.10
2023-07-25T05:52:09.907Z,3.17
2023-07-25T05:54:41.481Z,2.45
2023-07-25T05:57:13.247Z,2.83
2023-07-25T05:59:45.098Z,2.53
2023-07-25T06:02:17.786Z,3.70
2023-07-25T06:04:49.388Z,2.90
2023-07-25T06:07:23.729Z,3.70
2023-07-25T06:09:55.667Z,2.83
2023-07-25T06:12:27.452Z,3.03
2023-07-25T06:14:59.107Z,3.13
2023-07-25T06:17:30.717Z,3.30
2023-07-25T06:20:02.299Z,4.07
2023-07-25T06:22:35.975Z,3.58
2023-07-25T06:25:09.215Z,4.20
2023-07-25T06:27:40.939Z,3.85
2023-07-25T06:30:12.802Z,5.50
2023-07-25T06:32:44.422Z,4.60
2023-07-25T06:35:16.272Z,3.58
2023-07-25T06:37:47.805Z,3.17
2023-07-25T06:40:19.565Z,3.17
2023-07-25T06:42:51.117Z,2.90
2023-07-25T06:45:22.712Z,3.65
2023-07-25T06:47:54.444Z,4.28
2023-07-25T06:50:26.122Z,3.80
2023-07-25T06:52:57.683Z,4.13
2023-07-25T06:55:29.188Z,4.28
2023-07-25T06:58:00.734Z,5.32
2023-07-25T07:00:32.299Z,5.25
2023-07-25T07:03:06.159Z,4.65
2023-07-25T07:05:37.958Z,4.30
2023-07-25T07:08:09.636Z,6.80
2023-07-25T07:10:41.259Z,6.75
2023-07-25T07:13:12.847Z,4.93
2023-07-25T07:15:49.818Z,5.47
2023-07-25T07:18:24.490Z,4.25
2023-07-25T07:20:56.084Z,3.63
2023-07-25T07:23:27.787Z,6.32
2023-07-25T07:25:59.363Z,4.40
2023-07-25T07:28:31.311Z,3.20
2023-07-25T07:31:03.023Z,3.30
2023-07-25T07:33:34.863Z,3.00
2023-07-25T07:36:06.729Z,4.53
2023-07-25T07:38:38.426Z,3.50
2023-07-25T07:41:09.966Z,2.78
2023-07-25T07:43:41.598Z,2.78
2023-07-25T07:46:13.146Z,2.58
2023-07-25T07:48:44.839Z,2.30
2023-07-25T07:51:16.625Z,2.33
2023-07-25T07:53:48.247Z,2.22
2023-07-25T07:56:20.440Z,2.70
2023-07-25T07:58:52.131Z,2.90
2023-07-25T08:01:24.923Z,2.25
2023-07-25T08:03:56.612Z,2.67
2023-07-25T08:06:29.278Z,2.20
2023-07-25T08:09:00.936Z,2.10
2023-07-25T08:11:32.461Z,1.52
2023-07-25T08:14:04.288Z,2.15
2023-07-25T08:16:36.001Z,1.95
2023-07-25T08:19:07.678Z,2.60
2023-07-25T08:21:39.803Z,2.17
2023-07-25T08:24:11.552Z,1.88
2023-07-25T08:26:43.181Z,3.25
2023-07-25T08:29:15.118Z,3.53
2023-07-25T08:31:46.810Z,2.63
2023-07-25T08:34:18.650Z,2.63
2023-07-25T08:36:50.304Z,1.92
2023-07-25T08:39:22.137Z,2.17
2023-07-25T08:41:54.686Z,2.83
2023-07-25T08:44:27.901Z,2.60
2023-07-25T08:47:03.076Z,2.35
2023-07-25T08:49:37.166Z,3.35
2023-07-25T08:52:09.659Z,3.15
2023-07-25T08:54:44.691Z,8.65
2023-07-25T08:57:21.954Z,3.33
2023-07-25T08:59:54.959Z,7.88
2023-07-25T09:02:27.257Z,3.53
2023-07-25T09:04:59.140Z,6.55
2023-07-25T09:07:30.709Z,4.78
2023-07-25T09:10:03.410Z,5.50
2023-07-25T09:12:34.998Z,3.35
2023-07-25T09:15:07.141Z,2.45
2023-07-25T09:17:38.777Z,3.53
2023-07-25T09:20:11.009Z,3.40
2023-07-25T09:22:48.158Z,3.05
2023-07-25T09:25:19.696Z,2.55
2023-07-25T09:27:55.339Z,2.60
2023-07-25T09:30:30.960Z,3.72
2023-07-25T09:33:02.699Z,2.75
2023-07-25T09:35:34.335Z,2.40
2023-07-25T09:38:06.385Z,2.60
2023-07-25T09:40:39.029Z,2.97
2023-07-25T09:43:21.929Z,2.42
2023-07-25T09:45:54.525Z,3.10
2023-07-25T09:48:26.161Z,2.08
2023-07-25T09:50:58.014Z,2.63
2023-07-25T09:53:30.976Z,2.85
2023-07-25T09:56:03.374Z,2.00
2023-07-25T09:58:34.900Z,2.80
2023-07-25T10:01:07.208Z,1.30
2023-07-25T10:03:39.567Z,2.28
2023-07-25T10:06:13.132Z,2.65
2023-07-25T10:08:45.395Z,1.48
2023-07-25T10:11:17.462Z,1.77
2023-07-25T10:13:51.598Z,1.48
2023-07-25T10:16:23.674Z,1.88
2023-07-25T10:18:58.478Z,2.42
2023-07-25T10:21:47.393Z,2.72
2023-07-25T10:24:21.145Z,2.03
2023-07-25T10:26:54.673Z,2.83
2023-07-25T10:29:38.286Z,3.75
2023-07-25T10:32:17.785Z,1.80
2023-07-25T10:35:05.481Z,4.00
2023-07-25T10:37:43.476Z,5.25
2023-07-25T10:40:17.456Z,2.10
2023-07-25T10:45:29.891Z,1.50
2023-07-25T10:48:02.076Z,1.80
2023-07-25T10:50:46.270Z,1.80
2023-07-25T10:53:22.738Z,2.60
2023-07-25T10:56:09.674Z,1.75
2023-07-25T10:59:01.898Z,1.50
2023-07-25T11:01:45.041Z,1.20
2023-07-25T11:07:11.373Z,1.45
2023-07-25T11:09:44.835Z,1.25
2023-07-25T11:12:24.045Z,1.60
2023-07-25T11:14:55.825Z,1.77
2023-07-25T11:17:30.767Z,3.30
2023-07-25T11:20:17.388Z,2.05
2023-07-25T11:23:00.611Z,2.00
2023-07-25T11:25:32.270Z,1.90
2023-07-25T11:28:06.945Z,1.83
2023-07-25T11:30:53.586Z,2.63
2023-07-25T11:33:27.510Z,2.08
2023-07-25T11:35:59.160Z,1.90
2023-07-25T11:38:30.929Z,2.00
2023-07-25T11:41:03.105Z,2.20
2023-07-25T11:43:35.793Z,1.58
2023-07-25T11:46:07.764Z,2.17
2023-07-25T11:48:39.401Z,2.10
2023-07-25T11:51:11.283Z,1.70
2023-07-25T11:53:44.319Z,1.92
2023-07-25T11:56:16.289Z,2.08
2023-07-25T11:58:51.102Z,3.40
2023-07-25T12:01:28.929Z,1.90
2023-07-25T12:04:04.061Z,2.10
2023-07-25T12:06:36.134Z,1.70
2023-07-25T12:09:07.984Z,1.70
2023-07-25T12:11:45.816Z,1.75
2023-07-25T12:14:17.384Z,1.85
2023-07-25T12:16:49.138Z,2.17
2023-07-25T12:19:22.203Z,2.42
2023-07-25T12:22:05.463Z,1.88
2023-07-25T12:24:43.986Z,2.05
2023-07-25T12:27:18.153Z,1.80
2023-07-25T12:29:49.760Z,2.65
2023-07-25T12:32:21.384Z,1.98
2023-07-25T12:35:01.009Z,1.58
2023-07-25T12:37:33.897Z,1.63
2023-07-25T12:40:06.263Z,1.65
2023-07-25T12:42:37.830Z,1.65
2023-07-25T12:45:11.353Z,1.60
2023-07-25T12:47:43.366Z,1.70
2023-07-25T12:50:15.198Z,1.95
2023-07-25T12:52:46.808Z,1.67
2023-07-25T12:55:19.623Z,1.75
2023-07-25T12:57:51.618Z,2.78
2023-07-25T13:00:24.691Z,2.03
2023-07-25T13:02:58.004Z,1.90
2023-07-25T13:05:29.886Z,1.33
2023-07-25T13:08:01.449Z,1.98
2023-07-25T13:10:33.727Z,2.08
2023-07-25T13:13:05.478Z,1.52
2023-07-25T13:15:37.432Z,1.50
2023-07-25T13:18:09.141Z,2.00
2023-07-25T13:20:40.879Z,1.42
2023-07-25T13:23:13.861Z,2.17
2023-07-25T13:25:46.131Z,2.30
2023-07-25T13:28:17.838Z,2.28
2023-07-25T13:30:49.649Z,2.00
2023-07-25T13:33:21.332Z,2.72
2023-07-25T13:35:52.945Z,1.95
2023-07-25T13:38:24.541Z,2.10
2023-07-25T13:40:56.238Z,1.73
2023-07-25T13:43:27.840Z,1.90
2023-07-25T13:46:00.961Z,1.60
2023-07-25T13:48:34.152Z,1.65
2023-07-25T13:51:05.802Z,1.83
2023-07-25T13:53:37.377Z,1.88
2023-07-25T13:56:09.039Z,1.23
2023-07-25T13:58:40.617Z,1.50
2023-07-25T14:01:12.273Z,2.00
2023-07-25T14:03:43.874Z,2.05
2023-07-25T14:06:15.449Z,2.15
2023-07-25T14:08:47.034Z,2.38
2023-07-25T14:11:18.637Z,2.22
2023-07-25T14:13:51.579Z,2.00
2023-07-25T14:16:23.260Z,2.13
2023-07-25T14:18:55.166Z,1.83
2023-07-25T14:21:26.756Z,2.03
2023-07-25T14:23:58.326Z,1.40
2023-07-25T14:26:30.448Z,2.65
2023-07-25T14:29:04.659Z,2.13
2023-07-25T14:31:36.673Z,1.70
2023-07-25T14:34:08.461Z,1.80
2023-07-25T14:36:40.070Z,1.60
2023-07-25T14:39:11.816Z,1.55
2023-07-25T14:41:43.457Z,1.55
2023-07-25T14:44:15.050Z,1.60
2023-07-25T14:46:46.711Z,1.83
2023-07-25T14:49:18.440Z,2.25
2023-07-25T14:51:50.134Z,2.03
2023-07-25T14:54:21.739Z,2.42
2023-07-25T14:56:53.334Z,1.70
2023-07-25T14:59:24.998Z,2.10
2023-07-25T15:01:56.731Z,1.80
2023-07-25T15:04:28.289Z,1.90
2023-07-25T15:07:00.208Z,1.67
2023-07-25T15:09:31.794Z,2.05
2023-07-25T15:12:03.720Z,1.42
2023-07-25T15:14:35.356Z,1.92
2023-07-25T15:17:07.059Z,2.17
2023-07-25T15:19:38.696Z,1.35
2023-07-25T15:22:10.333Z,1.33
2023-07-25T15:24:43.286Z,1.30
2023-07-25T15:27:15.001Z,1.80
2023-07-25T15:29:46.820Z,1.65
2023-07-25T15:32:18.490Z,1.48
2023-07-25T15:34:50.272Z,2.08
2023-07-25T15:37:21.937Z,1.70
2023-07-25T15:39:54.873Z,1.70
2023-07-25T15:42:26.656Z,1.73
2023-07-25T15:44:58.513Z,1.45
2023-07-25T15:47:30.271Z,1.98
2023-07-25T15:50:02.029Z,1.77
2023-07-25T15:52:33.771Z,1.98
2023-07-25T15:55:05.881Z,1.88
2023-07-25T15:57:37.590Z,2.33
2023-07-25T16:00:10.306Z,2.25
2023-07-25T16:02:42.130Z,2.28
2023-07-25T16:05:14.119Z,2.10
2023-07-25T16:07:46.053Z,2.10
2023-07-25T16:10:17.760Z,4.53
2023-07-25T16:12:49.485Z,2.38
2023-07-25T16:15:21.127Z,2.38
2023-07-25T16:17:52.828Z,3.13
2023-07-25T16:20:24.511Z,2.35
2023-07-25T16:22:56.158Z,1.73
2023-07-25T16:25:27.887Z,2.20
2023-07-25T16:27:59.502Z,2.03
2023-07-25T16:30:31.103Z,2.15
2023-07-25T16:33:02.946Z,2.10
2023-07-25T16:35:34.536Z,2.08
2023-07-25T16:38:06.296Z,2.20
2023-07-25T16:40:38.039Z,1.92
2023-07-25T16:43:09.741Z,1.90
2023-07-25T16:45:41.383Z,2.50
2023-07-25T16:48:13.059Z,1.65
2023-07-25T16:50:44.600Z,1.98
2023-07-25T16:53:16.268Z,1.85
2023-07-25T16:55:47.814Z,1.80
2023-07-25T16:58:19.475Z,1.92
2023-07-25T17:00:52.417Z,2.00
2023-07-25T17:03:25.130Z,1.80
2023-07-25T17:05:56.989Z,2.08
2023-07-25T17:08:28.553Z,2.10
2023-07-25T17:11:07.837Z,2.15
2023-07-25T17:13:39.631Z,1.95
2023-07-25T17:16:11.321Z,2.08
2023-07-25T17:18:43.006Z,2.83
2023-07-25T17:21:18.395Z,2.33
2023-07-25T17:23:55.211Z,1.92
2023-07-25T17:26:26.874Z,2.10
2023-07-25T17:28:59.109Z,2.60
2023-07-25T17:31:31.059Z,1.95
2023-07-25T17:34:03.423Z,1.75
2023-07-25T17:36:35.143Z,2.22
2023-07-25T17:39:06.810Z,1.77
2023-07-25T17:41:38.592Z,1.70
2023-07-25T17:44:10.330Z,1.90
2023-07-25T17:46:41.963Z,2.30
2023-07-25T17:49:13.561Z,1.58
2023-07-25T17:51:45.274Z,1.77
2023-07-25T17:54:17.002Z,1.75
2023-07-25T17:56:49.083Z,2.17
2023-07-25T17:59:20.652Z,1.80
2023-07-25T18:01:52.313Z,1.90
2023-07-25T18:04:23.991Z,2.33
2023-07-25T18:06:55.931Z,2.38
2023-07-25T18:09:28.113Z,1.90
2023-07-25T18:11:59.768Z,2.00
2023-07-25T18:14:33.773Z,1.95
2023-07-25T18:17:07.631Z,2.60
2023-07-25T18:19:39.693Z,2.13
2023-07-25T18:22:11.231Z,2.15
2023-07-25T18:24:43.045Z,2.10
2023-07-25T18:27:14.669Z,1.73
2023-07-25T18:29:46.410Z,2.22
2023-07-25T18:32:18.033Z,1.63
2023-07-25T18:34:49.931Z,1.73
2023-07-25T18:37:21.588Z,1.40
2023-07-25T18:39:53.346Z,2.33
2023-07-25T18:42:24.988Z,2.15
2023-07-25T18:44:56.629Z,2.35
2023-07-25T18:47:34.926Z,1.73
2023-07-25T18:50:07.853Z,1.88
2023-07-25T18:52:39.502Z,2.67
2023-07-25T18:55:11.198Z,4.25
2023-07-25T18:57:42.865Z,2.00
2023-07-25T19:00:14.804Z,2.03
2023-07-25T19:02:46.733Z,1.83
2023-07-25T19:05:18.592Z,2.00
2023-07-25T19:07:50.291Z,1.88
2023-07-25T19:10:22.017Z,1.88
2023-07-25T19:12:53.557Z,1.90
2023-07-25T19:15:25.217Z,1.58
2023-07-25T19:17:56.931Z,1.73
2023-07-25T19:20:28.829Z,2.00
2023-07-25T19:23:07.856Z,2.30
2023-07-25T19:25:47.189Z,2.15
2023-07-25T19:28:18.797Z,3.47
2023-07-25T19:30:50.502Z,3.00
2023-07-25T19:33:22.724Z,2.13
2023-07-25T19:35:56.148Z,2.70
2023-07-25T19:38:29.059Z,2.53
2023-07-25T19:41:00.796Z,2.00
2023-07-25T19:43:33.314Z,2.03
2023-07-25T19:46:05.272Z,2.08
2023-07-25T19:48:37.159Z,1.63
2023-07-25T19:51:13.280Z,2.58
2023-07-25T19:53:45.068Z,3.92
2023-07-25T19:56:16.800Z,2.10
2023-07-25T19:58:49.070Z,2.30
2023-07-25T20:01:20.872Z,2.15
2023-07-25T20:03:52.695Z,1.73
2023-07-25T20:06:24.464Z,2.65
2023-07-25T20:08:56.165Z,3.42
2023-07-25T20:11:27.898Z,4.70
2023-07-25T20:13:59.699Z,3.28
2023-07-25T20:16:31.816Z,2.80
2023-07-25T20:19:03.957Z,4.15
2023-07-25T20:21:35.665Z,4.15
2023-07-25T20:24:12.459Z,3.33
2023-07-25T20:26:44.238Z,1.80
2023-07-25T20:29:16.016Z,1.73
2023-07-25T20:31:47.546Z,1.98
2023-07-25T20:34:19.320Z,1.85
2023-07-25T20:36:50.996Z,2.50
2023-07-25T20:39:22.678Z,3.50
2023-07-25T20:41:54.309Z,2.47
2023-07-25T20:44:25.953Z,1.90
2023-07-25T20:46:57.536Z,3.53
2023-07-25T20:49:29.257Z,4.63
2023-07-25T20:52:00.890Z,2.50
2023-07-25T20:54:32.536Z,2.30
2023-07-25T20:57:04.266Z,2.35
2023-07-25T20:59:35.887Z,1.80
2023-07-25T21:02:07.620Z,2.25
2023-07-25T21:04:39.300Z,2.58
2023-07-25T21:07:10.946Z,1.90
2023-07-25T21:09:42.761Z,2.25
2023-07-25T21:12:14.457Z,2.38
2023-07-25T21:14:46.263Z,2.00
2023-07-25T21:17:17.870Z,2.05
2023-07-25T21:19:49.625Z,1.92
2023-07-25T21:22:21.260Z,2.08
2023-07-25T21:24:53.278Z,1.88
2023-07-25T21:27:25.010Z,3.22
2023-07-25T21:29:56.770Z,2.53
2023-07-25T21:32:28.441Z,2.20
2023-07-25T21:35:00.364Z,1.70
2023-07-25T21:37:32.087Z,1.70
2023-07-25T21:40:04.090Z,2.05
2023-07-25T21:42:35.694Z,2.22
2023-07-25T21:45:08.028Z,2.20
2023-07-25T21:47:39.675Z,2.47
2023-07-25T21:50:12.990Z,2.22
2023-07-25T21:52:44.640Z,1.80
2023-07-25T21:55:16.299Z,1.92
2023-07-25T21:57:47.899Z,1.83
2023-07-25T22:00:19.560Z,2.08
2023-07-25T22:02:53.042Z,2.28
2023-07-25T22:05:24.808Z,1.80
2023-07-25T22:07:56.599Z,2.38
2023-07-25T22:10:28.333Z,2.00
2023-07-25T22:13:00.174Z,2.17
2023-07-25T22:15:32.118Z,1.85
2023-07-25T22:18:04.144Z,1.80
2023-07-25T22:20:50.768Z,1.83
2023-07-25T22:23:23.712Z,1.73
2023-07-25T22:26:02.857Z,2.08
2023-07-25T22:28:35.729Z,1.98
2023-07-25T22:31:07.490Z,1.95
2023-07-25T22:33:41.419Z,2.60
2023-07-25T22:36:13.114Z,2.10
2023-07-25T22:38:44.849Z,2.22
2023-07-25T22:41:16.644Z,2.05
2023-07-25T22:43:48.334Z,1.75
2023-07-25T22:46:20.162Z,2.20
2023-07-25T22:48:51.942Z,2.38
2023-07-25T22:51:23.930Z,2.97
2023-07-25T22:53:55.577Z,2.20
2023-07-25T22:56:27.254Z,1.70
2023-07-25T22:58:58.822Z,2.03
2023-07-25T23:01:30.412Z,2.50
2023-07-25T23:04:02.203Z,1.95
2023-07-25T23:06:34.124Z,2.03
2023-07-25T23:09:06.228Z,2.17
2023-07-25T23:11:37.860Z,2.15
2023-07-25T23:14:09.561Z,2.03
2023-07-25T23:16:41.172Z,2.00
2023-07-25T23:19:12.843Z,2.13
2023-07-25T23:21:44.549Z,1.98
2023-07-25T23:24:16.466Z,2.67
2023-07-25T23:26:48.289Z,2.67
2023-07-25T23:29:19.977Z,2.10
2023-07-25T23:31:51.639Z,2.20
2023-07-25T23:34:29.016Z,1.75
2023-07-25T23:37:00.992Z,2.70
2023-07-25T23:39:32.642Z,3.03
2023-07-25T23:42:04.798Z,3.00
2023-07-25T23:44:36.658Z,1.75
2023-07-25T23:47:08.326Z,2.45
2023-07-25T23:49:40.093Z,2.33
2023-07-25T23:52:11.652Z,2.40
2023-07-25T23:54:43.340Z,2.20
2023-07-25T23:57:15.081Z,2.75
2023-07-25T23:59:47.027Z,1.83
